sensor_id;sensor_type;location;lat;lon;timestamp;P1;durP1;ratioP1;P2;durP2;ratioP2
55931;SDS011;41837;55.700;37.984;2023-08-07T00:01:11;9.65;;;6.55;;
55931;SDS011;41837;55.700;37.984;2023-08-07T00:03:37;9.57;;;6.70;;
55931;SDS011;41837;55.700;37.984;2023-08-07T00:06:03;12.35;;;6.50;;
55931;SDS011;41837;55.700;37.984;2023-08-07T00:08:30;11.77;;;6.72;;
55931;SDS011;41837;55.700;37.984;2023-08-07T00:11:04;14.07;;;7.25;;
55931;SDS011;41837;55.700;37.984;2023-08-07T00:13:31;13.18;;;7.22;;
55931;SDS011;41837;55.700;37.984;2023-08-07T00:15:57;14.82;;;7.40;;
55931;SDS011;41837;55.700;37.984;2023-08-07T00:18:23;12.90;;;7.25;;
55931;SDS011;41837;55.700;37.984;2023-08-07T00:20:50;15.23;;;7.82;;
55931;SDS011;41837;55.700;37.984;2023-08-07T00:23:16;17.20;;;8.05;;
55931;SDS011;41837;55.700;37.984;2023-08-07T00:25:42;16.23;;;7.80;;
55931;SDS011;41837;55.700;37.984;2023-08-07T00:28:09;16.00;;;7.72;;
55931;SDS011;41837;55.700;37.984;2023-08-07T00:30:35;16.40;;;7.25;;
55931;SDS011;41837;55.700;37.984;2023-08-07T00:33:01;15.07;;;7.32;;
55931;SDS011;41837;55.700;37.984;2023-08-07T00:35:28;12.05;;;7.55;;
55931;SDS011;41837;55.700;37.984;2023-08-07T00:37:55;15.15;;;7.53;;
55931;SDS011;41837;55.700;37.984;2023-08-07T00:40:21;11.85;;;7.10;;
55931;SDS011;41837;55.700;37.984;2023-08-07T00:42:47;11.85;;;6.40;;
55931;SDS011;41837;55.700;37.984;2023-08-07T00:45:14;9.93;;;5.55;;
55931;SDS011;41837;55.700;37.984;2023-08-07T00:47:40;19.65;;;7.03;;
55931;SDS011;41837;55.700;37.984;2023-08-07T00:50:07;16.60;;;6.53;;
55931;SDS011;41837;55.700;37.984;2023-08-07T00:52:33;12.52;;;6.50;;
55931;SDS011;41837;55.700;37.984;2023-08-07T00:55:00;8.05;;;5.93;;
55931;SDS011;41837;55.700;37.984;2023-08-07T00:57:26;10.55;;;6.45;;
55931;SDS011;41837;55.700;37.984;2023-08-07T00:59:53;8.70;;;5.85;;
55931;SDS011;41837;55.700;37.984;2023-08-07T01:02:19;9.88;;;6.65;;
55931;SDS011;41837;55.700;37.984;2023-08-07T01:04:46;9.85;;;6.38;;
55931;SDS011;41837;55.700;37.984;2023-08-07T01:07:12;15.25;;;7.38;;
55931;SDS011;41837;55.700;37.984;2023-08-07T01:09:41;11.50;;;7.90;;
55931;SDS011;41837;55.700;37.984;2023-08-07T01:12:15;15.32;;;8.80;;
55931;SDS011;41837;55.700;37.984;2023-08-07T01:15:30;16.25;;;8.27;;
55931;SDS011;41837;55.700;37.984;2023-08-07T01:17:41;16.67;;;8.52;;
55931;SDS011;41837;55.700;37.984;2023-08-07T01:20:08;13.65;;;8.73;;
55931;SDS011;41837;55.700;37.984;2023-08-07T01:22:34;21.02;;;8.35;;
55931;SDS011;41837;55.700;37.984;2023-08-07T01:25:01;15.88;;;8.20;;
55931;SDS011;41837;55.700;37.984;2023-08-07T01:27:35;13.75;;;8.35;;
55931;SDS011;41837;55.700;37.984;2023-08-07T01:30:14;18.27;;;8.52;;
55931;SDS011;41837;55.700;37.984;2023-08-07T01:35:39;14.52;;;8.02;;
55931;SDS011;41837;55.700;37.984;2023-08-07T01:38:08;15.52;;;8.30;;
55931;SDS011;41837;55.700;37.984;2023-08-07T01:40:36;17.05;;;9.00;;
55931;SDS011;41837;55.700;37.984;2023-08-07T01:43:05;15.98;;;8.68;;
55931;SDS011;41837;55.700;37.984;2023-08-07T01:45:31;18.40;;;8.52;;
55931;SDS011;41837;55.700;37.984;2023-08-07T01:47:57;17.70;;;8.70;;
55931;SDS011;41837;55.700;37.984;2023-08-07T01:50:23;25.35;;;7.85;;
55931;SDS011;41837;55.700;37.984;2023-08-07T01:52:50;16.70;;;8.20;;
55931;SDS011;41837;55.700;37.984;2023-08-07T01:55:17;19.88;;;8.43;;
55931;SDS011;41837;55.700;37.984;2023-08-07T01:57:51;20.75;;;8.35;;
55931;SDS011;41837;55.700;37.984;2023-08-07T02:00:17;21.75;;;8.05;;
55931;SDS011;41837;55.700;37.984;2023-08-07T02:02:44;12.35;;;7.80;;
55931;SDS011;41837;55.700;37.984;2023-08-07T02:05:13;11.10;;;8.07;;
55931;SDS011;41837;55.700;37.984;2023-08-07T02:07:40;11.05;;;7.43;;
55931;SDS011;41837;55.700;37.984;2023-08-07T02:10:07;14.90;;;7.72;;
55931;SDS011;41837;55.700;37.984;2023-08-07T02:12:36;19.65;;;8.00;;
55931;SDS011;41837;55.700;37.984;2023-08-07T02:15:04;11.55;;;8.18;;
55931;SDS011;41837;55.700;37.984;2023-08-07T02:17:34;17.40;;;7.45;;
55931;SDS011;41837;55.700;37.984;2023-08-07T02:20:03;14.00;;;7.72;;
55931;SDS011;41837;55.700;37.984;2023-08-07T02:22:31;11.18;;;7.00;;
55931;SDS011;41837;55.700;37.984;2023-08-07T02:24:58;20.23;;;6.95;;
55931;SDS011;41837;55.700;37.984;2023-08-07T02:27:24;22.60;;;6.53;;
55931;SDS011;41837;55.700;37.984;2023-08-07T02:29:50;29.55;;;6.47;;
55931;SDS011;41837;55.700;37.984;2023-08-07T02:32:20;48.03;;;7.05;;
55931;SDS011;41837;55.700;37.984;2023-08-07T02:34:46;20.55;;;6.03;;
55931;SDS011;41837;55.700;37.984;2023-08-07T02:37:13;20.95;;;6.18;;
55931;SDS011;41837;55.700;37.984;2023-08-07T02:39:39;22.02;;;6.32;;
55931;SDS011;41837;55.700;37.984;2023-08-07T02:42:05;29.85;;;6.03;;
55931;SDS011;41837;55.700;37.984;2023-08-07T02:44:31;20.30;;;5.72;;
55931;SDS011;41837;55.700;37.984;2023-08-07T02:46:57;22.73;;;5.80;;
55931;SDS011;41837;55.700;37.984;2023-08-07T02:49:24;20.27;;;6.18;;
55931;SDS011;41837;55.700;37.984;2023-08-07T02:51:52;15.00;;;6.03;;
55931;SDS011;41837;55.700;37.984;2023-08-07T02:54:18;16.00;;;5.55;;
55931;SDS011;41837;55.700;37.984;2023-08-07T02:56:44;15.65;;;5.70;;
55931;SDS011;41837;55.700;37.984;2023-08-07T02:59:10;14.20;;;5.18;;
55931;SDS011;41837;55.700;37.984;2023-08-07T03:01:36;27.10;;;5.18;;
55931;SDS011;41837;55.700;37.984;2023-08-07T03:04:02;21.20;;;5.10;;
55931;SDS011;41837;55.700;37.984;2023-08-07T03:06:29;16.05;;;4.72;;
55931;SDS011;41837;55.700;37.984;2023-08-07T03:08:55;14.55;;;5.00;;
55931;SDS011;41837;55.700;37.984;2023-08-07T03:11:21;11.77;;;5.00;;
55931;SDS011;41837;55.700;37.984;2023-08-07T03:13:47;19.70;;;5.00;;
55931;SDS011;41837;55.700;37.984;2023-08-07T03:16:14;10.45;;;4.90;;
55931;SDS011;41837;55.700;37.984;2023-08-07T03:18:40;14.73;;;4.95;;
55931;SDS011;41837;55.700;37.984;2023-08-07T03:21:07;9.68;;;4.68;;
55931;SDS011;41837;55.700;37.984;2023-08-07T03:23:33;15.98;;;4.72;;
55931;SDS011;41837;55.700;37.984;2023-08-07T03:26:07;15.43;;;5.03;;
55931;SDS011;41837;55.700;37.984;2023-08-07T03:28:37;12.82;;;4.57;;
55931;SDS011;41837;55.700;37.984;2023-08-07T03:31:04;13.80;;;4.18;;
55931;SDS011;41837;55.700;37.984;2023-08-07T03:33:33;6.18;;;4.28;;
55931;SDS011;41837;55.700;37.984;2023-08-07T03:36:00;10.15;;;4.20;;
55931;SDS011;41837;55.700;37.984;2023-08-07T03:38:27;14.50;;;4.47;;
55931;SDS011;41837;55.700;37.984;2023-08-07T03:40:55;17.65;;;4.40;;
55931;SDS011;41837;55.700;37.984;2023-08-07T03:43:22;12.98;;;4.22;;
55931;SDS011;41837;55.700;37.984;2023-08-07T03:45:53;13.10;;;4.78;;
55931;SDS011;41837;55.700;37.984;2023-08-07T03:48:21;8.00;;;3.60;;
55931;SDS011;41837;55.700;37.984;2023-08-07T03:50:48;5.13;;;3.80;;
55931;SDS011;41837;55.700;37.984;2023-08-07T03:53:14;9.02;;;3.97;;
55931;SDS011;41837;55.700;37.984;2023-08-07T03:55:49;6.13;;;3.28;;
55931;SDS011;41837;55.700;37.984;2023-08-07T03:58:18;5.00;;;3.72;;
55931;SDS011;41837;55.700;37.984;2023-08-07T04:00:44;3.83;;;3.42;;
55931;SDS011;41837;55.700;37.984;2023-08-07T04:03:10;7.97;;;3.40;;
55931;SDS011;41837;55.700;37.984;2023-08-07T04:05:37;13.43;;;3.58;;
55931;SDS011;41837;55.700;37.984;2023-08-07T04:08:03;9.68;;;4.38;;
55931;SDS011;41837;55.700;37.984;2023-08-07T04:10:29;8.88;;;4.25;;
55931;SDS011;41837;55.700;37.984;2023-08-07T04:12:56;6.03;;;3.40;;
55931;SDS011;41837;55.700;37.984;2023-08-07T04:15:22;7.32;;;3.92;;
55931;SDS011;41837;55.700;37.984;2023-08-07T04:17:48;18.55;;;5.53;;
55931;SDS011;41837;55.700;37.984;2023-08-07T04:20:15;13.90;;;6.07;;
55931;SDS011;41837;55.700;37.984;2023-08-07T04:22:41;16.13;;;4.60;;
55931;SDS011;41837;55.700;37.984;2023-08-07T04:25:08;13.10;;;5.00;;
55931;SDS011;41837;55.700;37.984;2023-08-07T04:27:35;9.65;;;3.60;;
55931;SDS011;41837;55.700;37.984;2023-08-07T04:30:02;9.07;;;3.88;;
55931;SDS011;41837;55.700;37.984;2023-08-07T04:32:30;8.50;;;4.50;;
55931;SDS011;41837;55.700;37.984;2023-08-07T04:34:57;11.15;;;4.20;;
55931;SDS011;41837;55.700;37.984;2023-08-07T04:37:25;15.48;;;4.47;;
55931;SDS011;41837;55.700;37.984;2023-08-07T04:39:51;10.80;;;4.00;;
55931;SDS011;41837;55.700;37.984;2023-08-07T04:42:17;10.52;;;3.72;;
55931;SDS011;41837;55.700;37.984;2023-08-07T04:44:43;7.65;;;3.80;;
55931;SDS011;41837;55.700;37.984;2023-08-07T04:47:09;15.52;;;4.97;;
55931;SDS011;41837;55.700;37.984;2023-08-07T04:49:35;5.50;;;3.33;;
55931;SDS011;41837;55.700;37.984;2023-08-07T04:52:01;6.75;;;3.88;;
55931;SDS011;41837;55.700;37.984;2023-08-07T04:54:27;9.57;;;4.03;;
55931;SDS011;41837;55.700;37.984;2023-08-07T04:56:54;4.88;;;3.10;;
55931;SDS011;41837;55.700;37.984;2023-08-07T04:59:20;4.57;;;3.08;;
55931;SDS011;41837;55.700;37.984;2023-08-07T05:01:46;5.18;;;3.00;;
55931;SDS011;41837;55.700;37.984;2023-08-07T05:04:13;8.23;;;4.13;;
55931;SDS011;41837;55.700;37.984;2023-08-07T05:06:39;5.78;;;3.00;;
55931;SDS011;41837;55.700;37.984;2023-08-07T05:09:06;5.63;;;3.28;;
55931;SDS011;41837;55.700;37.984;2023-08-07T05:11:32;9.20;;;3.13;;
55931;SDS011;41837;55.700;37.984;2023-08-07T05:13:59;7.72;;;4.18;;
55931;SDS011;41837;55.700;37.984;2023-08-07T05:16:25;4.75;;;3.20;;
55931;SDS011;41837;55.700;37.984;2023-08-07T05:18:51;9.45;;;3.60;;
55931;SDS011;41837;55.700;37.984;2023-08-07T05:21:18;5.80;;;2.67;;
55931;SDS011;41837;55.700;37.984;2023-08-07T05:23:44;5.00;;;3.15;;
55931;SDS011;41837;55.700;37.984;2023-08-07T05:26:13;4.72;;;2.97;;
55931;SDS011;41837;55.700;37.984;2023-08-07T05:28:39;8.52;;;3.05;;
55931;SDS011;41837;55.700;37.984;2023-08-07T05:31:05;5.82;;;3.50;;
55931;SDS011;41837;55.700;37.984;2023-08-07T05:33:31;6.13;;;3.13;;
55931;SDS011;41837;55.700;37.984;2023-08-07T05:35:58;7.65;;;2.33;;
55931;SDS011;41837;55.700;37.984;2023-08-07T05:38:24;9.80;;;2.97;;
55931;SDS011;41837;55.700;37.984;2023-08-07T05:40:51;6.60;;;3.00;;
55931;SDS011;41837;55.700;37.984;2023-08-07T05:43:17;5.72;;;2.60;;
55931;SDS011;41837;55.700;37.984;2023-08-07T05:45:43;5.68;;;2.50;;
55931;SDS011;41837;55.700;37.984;2023-08-07T05:48:12;6.63;;;2.90;;
55931;SDS011;41837;55.700;37.984;2023-08-07T05:50:38;9.65;;;2.63;;
55931;SDS011;41837;55.700;37.984;2023-08-07T05:53:04;7.40;;;3.03;;
55931;SDS011;41837;55.700;37.984;2023-08-07T05:55:30;3.05;;;2.30;;
55931;SDS011;41837;55.700;37.984;2023-08-07T05:57:57;7.32;;;2.50;;
55931;SDS011;41837;55.700;37.984;2023-08-07T06:00:23;3.65;;;2.00;;
55931;SDS011;41837;55.700;37.984;2023-08-07T06:02:50;6.55;;;2.10;;
55931;SDS011;41837;55.700;37.984;2023-08-07T06:05:16;5.55;;;2.53;;
55931;SDS011;41837;55.700;37.984;2023-08-07T06:07:42;10.05;;;2.97;;
55931;SDS011;41837;55.700;37.984;2023-08-07T06:10:08;5.70;;;2.17;;
55931;SDS011;41837;55.700;37.984;2023-08-07T06:12:35;6.85;;;2.45;;
55931;SDS011;41837;55.700;37.984;2023-08-07T06:15:01;7.88;;;2.40;;
55931;SDS011;41837;55.700;37.984;2023-08-07T06:17:29;10.18;;;2.45;;
55931;SDS011;41837;55.700;37.984;2023-08-07T06:19:55;4.13;;;2.20;;
55931;SDS011;41837;55.700;37.984;2023-08-07T06:22:22;5.75;;;1.92;;
55931;SDS011;41837;55.700;37.984;2023-08-07T06:24:49;12.10;;;2.10;;
55931;SDS011;41837;55.700;37.984;2023-08-07T06:27:16;16.83;;;2.53;;
55931;SDS011;41837;55.700;37.984;2023-08-07T06:29:42;6.07;;;2.47;;
55931;SDS011;41837;55.700;37.984;2023-08-07T06:32:08;4.03;;;1.95;;
55931;SDS011;41837;55.700;37.984;2023-08-07T06:34:36;6.70;;;2.22;;
55931;SDS011;41837;55.700;37.984;2023-08-07T06:37:04;5.50;;;2.10;;
55931;SDS011;41837;55.700;37.984;2023-08-07T06:39:31;9.38;;;2.92;;
55931;SDS011;41837;55.700;37.984;2023-08-07T06:41:57;4.97;;;2.25;;
55931;SDS011;41837;55.700;37.984;2023-08-07T06:44:30;3.92;;;2.30;;
55931;SDS011;41837;55.700;37.984;2023-08-07T06:46:57;6.88;;;2.15;;
55931;SDS011;41837;55.700;37.984;2023-08-07T06:49:24;8.25;;;2.45;;
55931;SDS011;41837;55.700;37.984;2023-08-07T06:51:50;4.55;;;2.35;;
55931;SDS011;41837;55.700;37.984;2023-08-07T06:54:16;3.60;;;2.13;;
55931;SDS011;41837;55.700;37.984;2023-08-07T06:56:43;8.55;;;2.55;;
55931;SDS011;41837;55.700;37.984;2023-08-07T06:59:10;7.78;;;2.65;;
55931;SDS011;41837;55.700;37.984;2023-08-07T07:01:36;9.30;;;2.05;;
55931;SDS011;41837;55.700;37.984;2023-08-07T07:04:02;22.42;;;2.42;;
55931;SDS011;41837;55.700;37.984;2023-08-07T07:06:30;6.03;;;2.28;;
55931;SDS011;41837;55.700;37.984;2023-08-07T07:08:56;4.82;;;1.90;;
55931;SDS011;41837;55.700;37.984;2023-08-07T07:11:22;8.07;;;2.13;;
55931;SDS011;41837;55.700;37.984;2023-08-07T07:13:50;4.38;;;1.80;;
55931;SDS011;41837;55.700;37.984;2023-08-07T07:16:20;8.55;;;2.33;;
55931;SDS011;41837;55.700;37.984;2023-08-07T07:18:53;9.60;;;1.98;;
55931;SDS011;41837;55.700;37.984;2023-08-07T07:21:22;5.63;;;2.00;;
55931;SDS011;41837;55.700;37.984;2023-08-07T07:23:48;8.32;;;2.10;;
55931;SDS011;41837;55.700;37.984;2023-08-07T07:26:14;8.43;;;2.30;;
55931;SDS011;41837;55.700;37.984;2023-08-07T07:28:40;9.73;;;2.10;;
55931;SDS011;41837;55.700;37.984;2023-08-07T07:31:08;10.75;;;2.17;;
55931;SDS011;41837;55.700;37.984;2023-08-07T07:33:37;6.03;;;2.20;;
55931;SDS011;41837;55.700;37.984;2023-08-07T07:36:05;22.17;;;2.72;;
55931;SDS011;41837;55.700;37.984;2023-08-07T07:38:32;7.22;;;2.20;;
55931;SDS011;41837;55.700;37.984;2023-08-07T07:40:58;5.43;;;1.83;;
55931;SDS011;41837;55.700;37.984;2023-08-07T07:43:25;4.45;;;1.95;;
55931;SDS011;41837;55.700;37.984;2023-08-07T07:45:52;7.68;;;2.05;;
55931;SDS011;41837;55.700;37.984;2023-08-07T07:48:18;5.03;;;2.08;;
55931;SDS011;41837;55.700;37.984;2023-08-07T07:50:44;8.40;;;2.60;;
55931;SDS011;41837;55.700;37.984;2023-08-07T07:53:10;6.38;;;2.10;;
55931;SDS011;41837;55.700;37.984;2023-08-07T07:55:37;6.60;;;2.03;;
55931;SDS011;41837;55.700;37.984;2023-08-07T07:58:04;4.85;;;1.70;;
55931;SDS011;41837;55.700;37.984;2023-08-07T08:00:30;18.23;;;2.13;;
55931;SDS011;41837;55.700;37.984;2023-08-07T08:02:56;13.18;;;2.28;;
55931;SDS011;41837;55.700;37.984;2023-08-07T08:05:22;7.13;;;1.90;;
55931;SDS011;41837;55.700;37.984;2023-08-07T08:07:49;6.80;;;1.88;;
55931;SDS011;41837;55.700;37.984;2023-08-07T08:10:15;8.85;;;2.58;;
55931;SDS011;41837;55.700;37.984;2023-08-07T08:12:41;11.15;;;2.30;;
55931;SDS011;41837;55.700;37.984;2023-08-07T08:15:08;11.30;;;2.05;;
55931;SDS011;41837;55.700;37.984;2023-08-07T08:17:34;9.05;;;1.80;;
55931;SDS011;41837;55.700;37.984;2023-08-07T08:20:01;16.70;;;2.20;;
55931;SDS011;41837;55.700;37.984;2023-08-07T08:22:30;2.75;;;1.52;;
55931;SDS011;41837;55.700;37.984;2023-08-07T08:24:56;10.93;;;1.98;;
55931;SDS011;41837;55.700;37.984;2023-08-07T08:27:22;18.48;;;2.17;;
55931;SDS011;41837;55.700;37.984;2023-08-07T08:29:51;51.22;;;5.30;;
55931;SDS011;41837;55.700;37.984;2023-08-07T08:32:17;30.73;;;3.30;;
55931;SDS011;41837;55.700;37.984;2023-08-07T08:34:43;4.95;;;1.58;;
55931;SDS011;41837;55.700;37.984;2023-08-07T08:37:09;4.13;;;1.70;;
55931;SDS011;41837;55.700;37.984;2023-08-07T08:39:37;4.90;;;1.50;;
55931;SDS011;41837;55.700;37.984;2023-08-07T08:42:03;4.55;;;1.77;;
55931;SDS011;41837;55.700;37.984;2023-08-07T08:44:31;4.15;;;1.70;;
55931;SDS011;41837;55.700;37.984;2023-08-07T08:47:03;6.00;;;1.80;;
55931;SDS011;41837;55.700;37.984;2023-08-07T08:49:32;5.28;;;1.63;;
55931;SDS011;41837;55.700;37.984;2023-08-07T08:52:03;5.13;;;1.98;;
55931;SDS011;41837;55.700;37.984;2023-08-07T08:54:30;4.60;;;1.60;;
55931;SDS011;41837;55.700;37.984;2023-08-07T08:56:56;5.03;;;1.63;;
55931;SDS011;41837;55.700;37.984;2023-08-07T08:59:25;15.27;;;2.33;;
55931;SDS011;41837;55.700;37.984;2023-08-07T09:01:52;6.10;;;2.05;;
55931;SDS011;41837;55.700;37.984;2023-08-07T09:04:19;8.93;;;1.70;;
55931;SDS011;41837;55.700;37.984;2023-08-07T09:06:45;10.25;;;1.95;;
55931;SDS011;41837;55.700;37.984;2023-08-07T09:09:13;7.53;;;2.08;;
55931;SDS011;41837;55.700;37.984;2023-08-07T09:11:41;3.17;;;1.70;;
55931;SDS011;41837;55.700;37.984;2023-08-07T09:14:08;5.95;;;1.65;;
55931;SDS011;41837;55.700;37.984;2023-08-07T09:16:38;8.40;;;2.05;;
55931;SDS011;41837;55.700;37.984;2023-08-07T09:19:05;6.80;;;1.83;;
55931;SDS011;41837;55.700;37.984;2023-08-07T09:21:32;4.88;;;2.03;;
55931;SDS011;41837;55.700;37.984;2023-08-07T09:24:00;10.55;;;1.90;;
55931;SDS011;41837;55.700;37.984;2023-08-07T09:26:26;18.90;;;2.58;;
55931;SDS011;41837;55.700;37.984;2023-08-07T09:28:52;26.83;;;2.90;;
55931;SDS011;41837;55.700;37.984;2023-08-07T09:31:19;9.20;;;1.65;;
55931;SDS011;41837;55.700;37.984;2023-08-07T09:33:47;8.40;;;1.60;;
55931;SDS011;41837;55.700;37.984;2023-08-07T09:36:14;8.48;;;1.65;;
55931;SDS011;41837;55.700;37.984;2023-08-07T09:38:41;7.97;;;1.70;;
55931;SDS011;41837;55.700;37.984;2023-08-07T09:41:08;6.47;;;1.95;;
55931;SDS011;41837;55.700;37.984;2023-08-07T09:43:34;8.13;;;1.80;;
55931;SDS011;41837;55.700;37.984;2023-08-07T09:46:04;8.73;;;1.73;;
55931;SDS011;41837;55.700;37.984;2023-08-07T09:48:32;3.80;;;1.23;;
55931;SDS011;41837;55.700;37.984;2023-08-07T09:51:05;5.45;;;1.88;;
55931;SDS011;41837;55.700;37.984;2023-08-07T09:53:32;4.18;;;2.03;;
55931;SDS011;41837;55.700;37.984;2023-08-07T09:55:59;6.50;;;1.85;;
55931;SDS011;41837;55.700;37.984;2023-08-07T09:58:26;14.45;;;3.40;;
55931;SDS011;41837;55.700;37.984;2023-08-07T10:00:54;10.60;;;1.88;;
55931;SDS011;41837;55.700;37.984;2023-08-07T10:03:25;4.88;;;1.70;;
55931;SDS011;41837;55.700;37.984;2023-08-07T10:05:52;6.55;;;1.80;;
55931;SDS011;41837;55.700;37.984;2023-08-07T10:08:19;16.13;;;2.13;;
55931;SDS011;41837;55.700;37.984;2023-08-07T10:10:47;5.53;;;1.60;;
55931;SDS011;41837;55.700;37.984;2023-08-07T10:13:13;8.38;;;1.63;;
55931;SDS011;41837;55.700;37.984;2023-08-07T10:15:40;4.68;;;1.83;;
55931;SDS011;41837;55.700;37.984;2023-08-07T10:18:11;5.00;;;1.63;;
55931;SDS011;41837;55.700;37.984;2023-08-07T10:20:38;4.68;;;1.40;;
55931;SDS011;41837;55.700;37.984;2023-08-07T10:23:08;9.57;;;1.83;;
55931;SDS011;41837;55.700;37.984;2023-08-07T10:25:40;5.53;;;1.42;;
55931;SDS011;41837;55.700;37.984;2023-08-07T10:28:10;6.33;;;1.73;;
55931;SDS011;41837;55.700;37.984;2023-08-07T10:30:41;10.43;;;1.50;;
55931;SDS011;41837;55.700;37.984;2023-08-07T10:33:08;4.63;;;1.52;;
55931;SDS011;41837;55.700;37.984;2023-08-07T10:35:37;8.00;;;1.80;;
55931;SDS011;41837;55.700;37.984;2023-08-07T10:38:10;8.52;;;1.88;;
55931;SDS011;41837;55.700;37.984;2023-08-07T10:40:59;3.05;;;1.30;;
55931;SDS011;41837;55.700;37.984;2023-08-07T10:43:42;6.45;;;1.90;;
55931;SDS011;41837;55.700;37.984;2023-08-07T10:46:12;9.48;;;1.70;;
55931;SDS011;41837;55.700;37.984;2023-08-07T10:48:43;4.93;;;1.50;;
55931;SDS011;41837;55.700;37.984;2023-08-07T10:51:13;2.13;;;1.35;;
55931;SDS011;41837;55.700;37.984;2023-08-07T10:53:42;12.73;;;1.80;;
55931;SDS011;41837;55.700;37.984;2023-08-07T10:56:15;7.90;;;1.75;;
55931;SDS011;41837;55.700;37.984;2023-08-07T10:58:47;15.95;;;1.90;;
55931;SDS011;41837;55.700;37.984;2023-08-07T11:01:39;12.40;;;2.13;;
55931;SDS011;41837;55.700;37.984;2023-08-07T11:06:35;3.20;;;1.38;;
55931;SDS011;41837;55.700;37.984;2023-08-07T11:09:07;3.70;;;1.73;;
55931;SDS011;41837;55.700;37.984;2023-08-07T11:11:38;5.13;;;1.63;;
55931;SDS011;41837;55.700;37.984;2023-08-07T11:16:45;4.07;;;1.63;;
55931;SDS011;41837;55.700;37.984;2023-08-07T11:19:14;8.82;;;2.17;;
55931;SDS011;41837;55.700;37.984;2023-08-07T11:21:42;13.77;;;2.10;;
55931;SDS011;41837;55.700;37.984;2023-08-07T11:24:13;12.55;;;1.85;;
55931;SDS011;41837;55.700;37.984;2023-08-07T11:26:44;5.30;;;1.80;;
55931;SDS011;41837;55.700;37.984;2023-08-07T11:29:15;4.35;;;1.80;;
55931;SDS011;41837;55.700;37.984;2023-08-07T11:31:43;21.77;;;1.98;;
55931;SDS011;41837;55.700;37.984;2023-08-07T11:34:10;9.35;;;2.30;;
55931;SDS011;41837;55.700;37.984;2023-08-07T11:36:42;14.50;;;2.17;;
55931;SDS011;41837;55.700;37.984;2023-08-07T11:39:10;7.45;;;2.00;;
55931;SDS011;41837;55.700;37.984;2023-08-07T11:41:38;8.80;;;1.90;;
55931;SDS011;41837;55.700;37.984;2023-08-07T11:44:04;14.13;;;2.03;;
55931;SDS011;41837;55.700;37.984;2023-08-07T11:46:33;15.50;;;2.47;;
55931;SDS011;41837;55.700;37.984;2023-08-07T11:49:00;8.13;;;1.77;;
55931;SDS011;41837;55.700;37.984;2023-08-07T11:51:27;5.53;;;2.00;;
55931;SDS011;41837;55.700;37.984;2023-08-07T11:53:54;7.15;;;2.22;;
55931;SDS011;41837;55.700;37.984;2023-08-07T11:56:24;6.78;;;1.90;;
55931;SDS011;41837;55.700;37.984;2023-08-07T11:58:51;9.40;;;2.72;;
55931;SDS011;41837;55.700;37.984;2023-08-07T12:01:24;6.35;;;2.20;;
55931;SDS011;41837;55.700;37.984;2023-08-07T12:06:31;9.93;;;2.30;;
55931;SDS011;41837;55.700;37.984;2023-08-07T12:08:58;5.95;;;2.20;;
55931;SDS011;41837;55.700;37.984;2023-08-07T12:11:25;20.77;;;13.88;;
55931;SDS011;41837;55.700;37.984;2023-08-07T12:13:51;20.67;;;8.23;;
55931;SDS011;41837;55.700;37.984;2023-08-07T12:16:17;17.38;;;8.55;;
55931;SDS011;41837;55.700;37.984;2023-08-07T12:18:45;8.38;;;3.22;;
55931;SDS011;41837;55.700;37.984;2023-08-07T12:21:16;28.63;;;17.00;;
55931;SDS011;41837;55.700;37.984;2023-08-07T12:23:45;16.23;;;4.97;;
55931;SDS011;41837;55.700;37.984;2023-08-07T12:26:15;26.40;;;9.35;;
55931;SDS011;41837;55.700;37.984;2023-08-07T12:28:42;19.50;;;13.63;;
55931;SDS011;41837;55.700;37.984;2023-08-07T12:31:09;6.50;;;2.67;;
55931;SDS011;41837;55.700;37.984;2023-08-07T12:33:35;17.90;;;3.30;;
55931;SDS011;41837;55.700;37.984;2023-08-07T12:36:02;12.65;;;2.55;;
55931;SDS011;41837;55.700;37.984;2023-08-07T12:38:28;13.93;;;4.40;;
55931;SDS011;41837;55.700;37.984;2023-08-07T12:40:55;10.05;;;5.88;;
55931;SDS011;41837;55.700;37.984;2023-08-07T12:43:22;12.68;;;7.13;;
55931;SDS011;41837;55.700;37.984;2023-08-07T12:45:49;5.55;;;3.78;;
55931;SDS011;41837;55.700;37.984;2023-08-07T12:48:15;6.57;;;2.42;;
55931;SDS011;41837;55.700;37.984;2023-08-07T12:50:42;5.78;;;2.30;;
55931;SDS011;41837;55.700;37.984;2023-08-07T12:53:08;7.55;;;2.50;;
55931;SDS011;41837;55.700;37.984;2023-08-07T12:55:35;7.50;;;2.72;;
55931;SDS011;41837;55.700;37.984;2023-08-07T12:58:01;6.95;;;3.85;;
55931;SDS011;41837;55.700;37.984;2023-08-07T13:00:27;4.75;;;2.63;;
55931;SDS011;41837;55.700;37.984;2023-08-07T13:02:54;13.57;;;4.95;;
55931;SDS011;41837;55.700;37.984;2023-08-07T13:05:22;8.85;;;3.90;;
55931;SDS011;41837;55.700;37.984;2023-08-07T13:07:49;3.20;;;2.42;;
55931;SDS011;41837;55.700;37.984;2023-08-07T13:10:16;9.40;;;5.50;;
55931;SDS011;41837;55.700;37.984;2023-08-07T13:12:43;32.58;;;19.42;;
55931;SDS011;41837;55.700;37.984;2023-08-07T13:15:14;21.48;;;13.45;;
55931;SDS011;41837;55.700;37.984;2023-08-07T13:17:42;56.08;;;35.85;;
55931;SDS011;41837;55.700;37.984;2023-08-07T13:20:09;20.70;;;13.68;;
55931;SDS011;41837;55.700;37.984;2023-08-07T13:22:42;35.53;;;16.75;;
55931;SDS011;41837;55.700;37.984;2023-08-07T13:25:11;11.43;;;2.60;;
55931;SDS011;41837;55.700;37.984;2023-08-07T13:27:39;15.35;;;2.85;;
55931;SDS011;41837;55.700;37.984;2023-08-07T13:30:06;13.85;;;2.22;;
55931;SDS011;41837;55.700;37.984;2023-08-07T13:32:36;8.32;;;2.00;;
55931;SDS011;41837;55.700;37.984;2023-08-07T13:35:03;4.90;;;1.80;;
55931;SDS011;41837;55.700;37.984;2023-08-07T13:37:32;6.30;;;2.10;;
55931;SDS011;41837;55.700;37.984;2023-08-07T13:40:00;10.98;;;2.38;;
55931;SDS011;41837;55.700;37.984;2023-08-07T13:42:30;8.00;;;1.80;;
55931;SDS011;41837;55.700;37.984;2023-08-07T13:44:57;4.78;;;2.20;;
55931;SDS011;41837;55.700;37.984;2023-08-07T13:47:24;7.15;;;2.40;;
55931;SDS011;41837;55.700;37.984;2023-08-07T13:49:52;10.52;;;2.25;;
55931;SDS011;41837;55.700;37.984;2023-08-07T13:52:20;14.35;;;2.35;;
55931;SDS011;41837;55.700;37.984;2023-08-07T13:54:46;11.30;;;2.10;;
55931;SDS011;41837;55.700;37.984;2023-08-07T13:57:12;9.85;;;2.40;;
55931;SDS011;41837;55.700;37.984;2023-08-07T13:59:39;7.45;;;1.85;;
55931;SDS011;41837;55.700;37.984;2023-08-07T14:02:05;5.63;;;1.90;;
55931;SDS011;41837;55.700;37.984;2023-08-07T14:04:33;10.07;;;2.30;;
55931;SDS011;41837;55.700;37.984;2023-08-07T14:06:59;14.02;;;2.28;;
55931;SDS011;41837;55.700;37.984;2023-08-07T14:09:26;7.75;;;2.40;;
55931;SDS011;41837;55.700;37.984;2023-08-07T14:11:52;9.90;;;4.60;;
55931;SDS011;41837;55.700;37.984;2023-08-07T14:14:18;10.13;;;4.80;;
55931;SDS011;41837;55.700;37.984;2023-08-07T14:16:45;10.98;;;2.80;;
55931;SDS011;41837;55.700;37.984;2023-08-07T14:19:11;17.23;;;2.83;;
55931;SDS011;41837;55.700;37.984;2023-08-07T14:21:37;10.43;;;2.70;;
55931;SDS011;41837;55.700;37.984;2023-08-07T14:24:04;7.38;;;1.90;;
55931;SDS011;41837;55.700;37.984;2023-08-07T14:26:31;6.45;;;2.25;;
55931;SDS011;41837;55.700;37.984;2023-08-07T14:28:58;6.10;;;2.22;;
55931;SDS011;41837;55.700;37.984;2023-08-07T14:31:25;4.65;;;1.98;;
55931;SDS011;41837;55.700;37.984;2023-08-07T14:33:50;6.53;;;2.20;;
55931;SDS011;41837;55.700;37.984;2023-08-07T14:36:17;4.20;;;2.30;;
55931;SDS011;41837;55.700;37.984;2023-08-07T14:38:43;5.45;;;2.30;;
55931;SDS011;41837;55.700;37.984;2023-08-07T14:41:09;6.35;;;2.10;;